Time;durP1;ratioP1;P1;durP2;ratioP2;P2;SDS_P1;SDS_P2;PMS_P1;PMS_P2;Temp;Humidity;BMP_temperature;BMP_pressure;BME280_temperature;BME280_humidity;BME280_pressure;Samples;Min_cycle;Max_cycle;Signal;HPM_P1;HPM_P2
2023/08/08 00:02:25;;;;;;;3.67;0.20;;;;;;;18.12;74.11;99018.34;5011698;28;20037;-75
2023/08/08 00:04:53;;;;;;;1.48;0.10;;;;;;;18.12;74.16;99023.63;5010655;28;20045;-74
2023/08/08 00:07:20;;;;;;;1.83;0.10;;;;;;;18.11;74.14;99021.94;5008639;28;20037;-75
2023/08/08 00:09:47;;;;;;;1.50;0.10;;;;;;;18.12;74.26;99022.78;5012022;28;20041;-74
2023/08/08 00:12:15;;;;;;;3.25;0.28;;;;;;;18.11;74.28;99016.66;5009670;28;20458;-74
2023/08/08 00:14:41;;;;;;;2.38;0.20;;;;;;;18.08;74.16;99016.06;5011700;28;20108;-74
2023/08/08 00:17:08;;;;;;;2.50;0.10;;;;;;;18.10;74.41;99022.06;5018279;28;20392;-74
2023/08/08 00:19:35;;;;;;;2.55;0.20;;;;;;;18.09;74.32;99034.44;5010373;28;20068;-76
2023/08/08 00:22:04;;;;;;;3.50;0.73;;;;;;;18.10;74.39;99033.50;5011236;28;20129;-74
2023/08/08 00:24:31;;;;;;;3.45;0.10;;;;;;;18.10;74.16;99014.13;5012112;28;20057;-73
2023/08/08 00:26:58;;;;;;;2.28;0.10;;;;;;;18.11;74.45;98989.41;5014638;28;20050;-76
2023/08/08 00:29:25;;;;;;;1.98;0.20;;;;;;;18.10;74.42;98983.28;5009397;28;20812;-76
2023/08/08 00:31:52;;;;;;;1.40;0.10;;;;;;;18.07;74.32;98988.81;5015493;28;20053;-76
2023/08/08 00:34:19;;;;;;;2.65;0.38;;;;;;;18.10;74.33;98983.28;5015861;28;20041;-76
2023/08/08 00:36:46;;;;;;;2.22;0.10;;;;;;;18.10;74.29;98993.84;5012178;28;20067;-76
2023/08/08 00:39:14;;;;;;;2.50;0.35;;;;;;;18.11;74.08;98999.97;5017290;28;20048;-77
2023/08/08 00:41:41;;;;;;;0.65;0.10;;;;;;;18.10;73.98;98992.97;5011690;28;20061;-77
2023/08/08 00:44:08;;;;;;;3.47;0.10;;;;;;;18.09;73.96;98994.78;5013527;28;20045;-78
2023/08/08 00:46:35;;;;;;;1.55;0.10;;;;;;;18.08;74.13;98990.47;5018465;28;20080;-77
2023/08/08 00:49:02;;;;;;;2.25;0.20;;;;;;;18.08;74.18;98985.19;5016689;28;20385;-77
2023/08/08 00:51:29;;;;;;;4.53;0.55;;;;;;;18.07;74.20;98975.59;5016324;28;20050;-78
2023/08/08 00:53:57;;;;;;;1.95;0.10;;;;;;;18.07;73.94;98980.00;5016769;28;20407;-77
2023/08/08 00:56:26;;;;;;;1.08;0.10;;;;;;;18.06;74.08;98965.97;5019394;28;20046;-77
2023/08/08 00:58:53;;;;;;;2.72;0.10;;;;;;;18.06;74.27;98960.69;5011792;28;20046;-77
2023/08/08 01:01:19;;;;;;;3.20;0.10;;;;;;;18.05;74.00;98958.19;5023156;28;20033;-77
2023/08/08 01:03:46;;;;;;;0.95;0.10;;;;;;;18.04;74.17;98951.19;5007439;28;20392;-77
2023/08/08 01:06:24;;;;;;;2.15;0.10;;;;;;;18.03;74.01;98950.34;5020607;28;20049;-77
2023/08/08 01:08:58;;;;;;;1.02;0.10;;;;;;;18.03;73.90;98944.25;5012011;28;20046;-77
2023/08/08 01:11:30;;;;;;;4.30;0.30;;;;;;;18.03;73.92;98934.50;5013561;28;20053;-77
2023/08/08 01:13:57;;;;;;;3.22;0.20;;;;;;;17.97;74.08;98929.72;5014799;28;20060;-77
2023/08/08 01:16:27;;;;;;;1.83;0.25;;;;;;;17.95;74.01;98916.59;5020513;28;20050;-76
2023/08/08 01:18:54;;;;;;;2.67;0.60;;;;;;;17.97;74.12;98913.88;5014723;28;20390;-77
2023/08/08 01:21:21;;;;;;;3.33;0.57;;;;;;;17.95;74.23;98919.25;5021244;28;20051;-77
2023/08/08 01:23:54;;;;;;;1.05;0.10;;;;;;;18.00;74.03;98908.34;5020959;28;20534;-77
2023/08/08 01:26:24;;;;;;;4.07;0.17;;;;;;;17.97;74.20;98896.19;5012360;28;20485;-77
2023/08/08 01:28:54;;;;;;;4.05;0.15;;;;;;;17.97;74.28;98892.72;5013542;28;20048;-77
2023/08/08 01:31:21;;;;;;;3.10;0.10;;;;;;;17.93;74.25;98889.50;5016421;28;20657;-77
2023/08/08 01:33:48;;;;;;;2.90;0.13;;;;;;;17.98;74.40;98895.22;5023054;28;20052;-77
2023/08/08 01:36:21;;;;;;;1.52;0.20;;;;;;;17.98;74.60;98897.03;5013972;28;20052;-77
2023/08/08 01:38:52;;;;;;;2.88;0.20;;;;;;;17.98;74.43;98894.41;5013479;28;20056;-77
2023/08/08 01:41:21;;;;;;;2.90;0.20;;;;;;;17.97;74.53;98875.06;5014410;28;20494;-77
2023/08/08 01:43:49;;;;;;;2.08;0.20;;;;;;;17.95;74.55;98874.34;5019878;28;20048;-79
2023/08/08 01:46:17;;;;;;;1.35;0.20;;;;;;;17.94;74.57;98859.47;5018093;28;20046;-77
2023/08/08 01:48:46;;;;;;;1.38;0.10;;;;;;;17.95;74.72;98857.66;5017359;28;20048;-74
2023/08/08 01:51:13;;;;;;;4.00;0.13;;;;;;;17.94;74.66;98845.41;5014076;28;20046;-74
2023/08/08 01:53:40;;;;;;;2.72;0.10;;;;;;;17.95;74.91;98852.38;5012456;28;20049;-74
2023/08/08 01:56:08;;;;;;;3.22;0.10;;;;;;;17.95;74.72;98844.44;5013872;28;20053;-75
2023/08/08 01:58:35;;;;;;;3.65;0.10;;;;;;;17.95;74.74;98847.09;5015722;28;20153;-76
2023/08/08 02:01:03;;;;;;;0.80;0.20;;;;;;;17.95;75.07;98836.53;5013161;28;20383;-74
2023/08/08 02:03:30;;;;;;;2.05;0.30;;;;;;;17.95;75.06;98831.25;5012784;28;20055;-74
2023/08/08 02:05:57;;;;;;;2.40;0.43;;;;;;;17.96;75.02;98828.50;5017782;28;20124;-75
2023/08/08 02:08:24;;;;;;;3.80;0.22;;;;;;;17.98;75.22;98825.72;5009429;28;20568;-76
2023/08/08 02:10:50;;;;;;;0.85;0.10;;;;;;;17.96;75.51;98822.38;5016590;28;20045;-74
2023/08/08 02:13:17;;;;;;;1.70;0.20;;;;;;;18.00;75.28;98809.75;5014579;28;20045;-75
2023/08/08 02:15:44;;;;;;;1.63;0.20;;;;;;;18.00;75.44;98805.31;5009704;28;20484;-74
2023/08/08 02:18:12;;;;;;;3.45;0.28;;;;;;;18.01;75.49;98795.56;5009906;28;20046;-74
2023/08/08 02:20:39;;;;;;;1.70;0.10;;;;;;;18.01;75.30;98785.84;5013849;28;20038;-74
2023/08/08 02:23:06;;;;;;;0.45;0.08;;;;;;;18.02;75.51;98782.25;5015223;28;20048;-75
2023/08/08 02:25:33;;;;;;;3.30;0.20;;;;;;;18.02;75.68;98779.59;5010147;28;20072;-75
2023/08/08 02:28:00;;;;;;;3.40;0.10;;;;;;;17.91;75.68;98750.56;5015544;28;20045;-75
2023/08/08 02:30:27;;;;;;;2.17;0.10;;;;;;;18.02;75.63;98769.03;5014875;28;20046;-75
2023/08/08 02:32:54;;;;;;;2.40;0.10;;;;;;;17.97;75.88;98760.63;5012161;28;20046;-74
2023/08/08 02:35:22;;;;;;;4.85;0.10;;;;;;;18.03;75.84;98754.03;5014546;28;20060;-75
2023/08/08 02:37:49;;;;;;;3.00;0.20;;;;;;;18.02;75.83;98761.13;5012709;28;20627;-74
2023/08/08 02:40:16;;;;;;;2.08;0.80;;;;;;;18.00;75.75;98759.56;5009449;28;20149;-74
2023/08/08 02:42:43;;;;;;;0.98;0.20;;;;;;;18.02;75.94;98758.47;5015161;28;20064;-74
2023/08/08 02:45:10;;;;;;;1.67;0.10;;;;;;;17.96;75.80;98743.13;5014276;28;20418;-75
2023/08/08 02:47:37;;;;;;;5.30;0.30;;;;;;;18.01;76.02;98748.84;5013247;28;20049;-74
2023/08/08 02:50:04;;;;;;;7.15;0.50;;;;;;;18.01;76.10;98746.22;5010211;28;20056;-73
2023/08/08 02:52:32;;;;;;;3.40;0.68;;;;;;;18.01;76.07;98735.63;5012932;28;20064;-74
2023/08/08 02:54:59;;;;;;;2.17;0.10;;;;;;;18.02;75.88;98728.56;5013594;28;20049;-73
2023/08/08 02:57:26;;;;;;;2.50;0.45;;;;;;;18.02;76.00;98725.94;5013340;28;20834;-76
2023/08/08 02:59:53;;;;;;;1.77;0.20;;;;;;;17.95;76.08;98707.09;5013480;28;20046;-74
2023/08/08 03:02:20;;;;;;;1.23;0.20;;;;;;;17.90;76.17;98688.13;5010580;28;20045;-74
2023/08/08 03:04:47;;;;;;;3.30;0.10;;;;;;;18.02;76.09;98700.34;5012876;28;20053;-73
2023/08/08 03:07:14;;;;;;;2.38;0.15;;;;;;;18.02;75.91;98695.06;5011955;28;20049;-73
2023/08/08 03:09:42;;;;;;;2.85;0.38;;;;;;;18.02;75.94;98704.81;5015971;28;20084;-74
2023/08/08 03:12:10;;;;;;;2.38;0.10;;;;;;;17.91;75.99;98681.91;5013494;28;20866;-73
2023/08/08 03:14:36;;;;;;;2.30;0.10;;;;;;;18.01;76.09;98703.94;5013613;28;20064;-73
2023/08/08 03:17:04;;;;;;;1.05;0.10;;;;;;;18.00;76.11;98694.34;5018716;28;20056;-77
2023/08/08 03:19:31;;;;;;;3.92;0.10;;;;;;;18.01;76.26;98684.63;5019355;28;20133;-74
2023/08/08 03:21:57;;;;;;;3.60;0.13;;;;;;;17.91;75.96;98668.69;5014838;28;20049;-73
2023/08/08 03:24:24;;;;;;;1.42;0.20;;;;;;;18.01;76.23;98672.25;5016329;28;20038;-73
2023/08/08 03:26:53;;;;;;;3.45;0.65;;;;;;;18.00;76.16;98670.56;5015980;28;20129;-74
2023/08/08 03:29:20;;;;;;;0.95;0.10;;;;;;;18.01;76.24;98666.94;5019182;28;20054;-73
2023/08/08 03:31:47;;;;;;;2.28;0.63;;;;;;;17.98;76.31;98659.28;5014608;28;20054;-73
2023/08/08 03:34:14;;;;;;;0.50;0.10;;;;;;;18.00;76.28;98665.28;5019916;28;20045;-73
2023/08/08 03:36:42;;;;;;;3.47;0.28;;;;;;;17.95;75.92;98657.72;5018180;28;20519;-75
2023/08/08 03:39:08;;;;;;;1.48;0.10;;;;;;;17.98;76.19;98660.13;5014026;28;20053;-74
2023/08/08 03:41:36;;;;;;;3.90;0.13;;;;;;;18.00;76.26;98653.88;5016958;28;20058;-74
2023/08/08 03:44:04;;;;;;;3.58;0.35;;;;;;;17.98;76.15;98656.66;5015593;28;20042;-73
2023/08/08 03:46:31;;;;;;;4.18;0.10;;;;;;;17.97;76.39;98652.34;5017509;28;20061;-73
2023/08/08 03:48:58;;;;;;;1.35;0.08;;;;;;;17.97;76.10;98649.69;5017644;28;20133;-73
2023/08/08 03:51:25;;;;;;;1.83;0.10;;;;;;;17.94;75.99;98642.84;5018220;28;20056;-74
2023/08/08 03:53:52;;;;;;;0.68;0.10;;;;;;;17.93;76.04;98632.41;5016209;28;20488;-74
2023/08/08 03:56:19;;;;;;;0.82;0.10;;;;;;;17.91;75.87;98623.78;5017828;28;20046;-74
2023/08/08 03:58:46;;;;;;;1.02;0.00;;;;;;;17.89;75.95;98628.34;5018777;28;20773;-78
2023/08/08 04:01:14;;;;;;;0.50;0.10;;;;;;;17.85;75.89;98629.59;5014062;28;20046;-77
2023/08/08 04:03:41;;;;;;;4.38;0.10;;;;;;;17.79;75.63;98620.38;5011820;28;20046;-78
2023/08/08 04:06:08;;;;;;;3.08;0.25;;;;;;;17.80;75.67;98627.31;5021738;28;20046;-77
2023/08/08 04:08:35;;;;;;;5.63;0.20;;;;;;;17.80;75.84;98621.19;5017757;28;20046;-75
2023/08/08 04:11:02;;;;;;;3.20;0.32;;;;;;;17.80;75.70;98610.63;5012921;28;20424;-75
2023/08/08 04:13:29;;;;;;;8.73;0.20;;;;;;;17.79;75.86;98611.59;5017036;28;20045;-75
2023/08/08 04:15:56;;;;;;;5.80;0.10;;;;;;;17.79;75.87;98616.88;5013823;28;20405;-75
2023/08/08 04:18:24;;;;;;;0.80;0.10;;;;;;;17.77;75.69;98617.81;5019520;28;20056;-74
2023/08/08 04:20:51;;;;;;;1.73;0.10;;;;;;;17.73;75.91;98621.69;5012758;28;20046;-75
2023/08/08 04:23:18;;;;;;;2.05;0.57;;;;;;;17.73;75.70;98616.41;5016074;28;20053;-75
2023/08/08 04:25:46;;;;;;;8.27;0.30;;;;;;;17.70;75.65;98616.66;5012565;28;20072;-75
2023/08/08 04:28:12;;;;;;;3.03;0.32;;;;;;;17.66;75.78;98611.75;5016538;28;20502;-75
2023/08/08 04:30:39;;;;;;;2.53;0.20;;;;;;;17.65;75.70;98610.06;5016826;28;20049;-74
2023/08/08 04:33:06;;;;;;;1.13;0.10;;;;;;;17.61;75.73;98606.81;5015378;28;20037;-75
2023/08/08 04:35:34;;;;;;;1.05;0.10;;;;;;;17.59;75.90;98607.91;5015789;28;20053;-75
2023/08/08 04:38:01;;;;;;;6.30;0.10;;;;;;;17.52;75.92;98603.13;5016274;28;20042;-75
2023/08/08 04:40:28;;;;;;;3.33;0.20;;;;;;;17.52;75.92;98602.31;5016337;28;20053;-75
2023/08/08 04:42:55;;;;;;;4.07;0.10;;;;;;;17.46;75.86;98594.91;5015152;28;20046;-76
2023/08/08 04:45:22;;;;;;;2.90;0.10;;;;;;;17.45;76.04;98593.22;5012685;28;20053;-76
2023/08/08 04:47:49;;;;;;;2.30;0.00;;;;;;;17.44;76.13;98586.25;5020334;28;20385;-75
2023/08/08 04:50:16;;;;;;;1.65;0.52;;;;;;;17.42;75.97;98589.03;5015304;28;20042;-74
2023/08/08 04:52:44;;;;;;;4.65;0.30;;;;;;;17.41;75.97;98575.94;5013091;28;20046;-75
2023/08/08 04:55:11;;;;;;;3.65;0.22;;;;;;;17.30;75.96;98561.84;5017991;28;20049;-75
2023/08/08 04:57:38;;;;;;;0.80;0.00;;;;;;;17.39;76.18;98569.94;5016081;28;20053;-75
2023/08/08 05:00:08;;;;;;;0.80;0.00;;;;;;;17.38;76.03;98571.75;5016193;28;20054;-75
2023/08/08 05:02:35;;;;;;;1.90;0.00;;;;;;;17.37;76.15;98566.63;5016118;28;20057;-75
2023/08/08 05:05:03;;;;;;;1.08;0.00;;;;;;;17.35;76.10;98569.38;5015113;28;20445;-75
2023/08/08 05:07:32;;;;;;;1.27;0.10;;;;;;;17.33;76.54;98567.81;5016229;28;20050;-76
2023/08/08 05:10:01;;;;;;;2.30;0.10;;;;;;;17.35;76.24;98566.72;5014904;28;20112;-78
2023/08/08 05:12:27;;;;;;;2.63;0.10;;;;;;;17.35;76.23;98563.25;5016145;28;20489;-77
2023/08/08 05:14:54;;;;;;;0.40;0.10;;;;;;;17.31;76.44;98552.97;5015155;28;20416;-77
2023/08/08 05:17:21;;;;;;;2.55;0.00;;;;;;;17.34;76.16;98543.97;5015203;28;20042;-77
2023/08/08 05:19:48;;;;;;;2.28;0.00;;;;;;;17.34;76.21;98543.97;5014734;28;20067;-75
2023/08/08 05:22:15;;;;;;;0.20;0.00;;;;;;;17.33;76.49;98542.25;5012002;28;20052;-76
2023/08/08 05:24:42;;;;;;;1.17;0.00;;;;;;;17.33;76.30;98544.91;5016512;28;20075;-74
2023/08/08 05:27:11;;;;;;;2.17;0.00;;;;;;;17.32;76.29;98532.69;5011998;28;20591;-74
2023/08/08 05:29:39;;;;;;;2.60;0.05;;;;;;;17.29;76.37;98528.50;5011457;28;20053;-74
2023/08/08 05:32:07;;;;;;;0.65;0.00;;;;;;;17.27;76.71;98530.41;5010424;28;20128;-74
2023/08/08 05:34:34;;;;;;;1.23;0.05;;;;;;;17.28;76.28;98524.19;5013254;28;20119;-73
2023/08/08 05:37:01;;;;;;;4.97;0.00;;;;;;;17.28;76.48;98521.53;5014873;28;20057;-74
2023/08/08 05:39:28;;;;;;;0.20;0.00;;;;;;;17.29;76.41;98517.94;5007120;28;20050;-74
2023/08/08 05:41:55;;;;;;;0.55;0.00;;;;;;;17.28;76.54;98516.28;5019532;28;20052;-73
2023/08/08 05:44:23;;;;;;;0.10;0.00;;;;;;;17.26;76.35;98509.44;5010696;28;20045;-72
2023/08/08 05:46:50;;;;;;;0.13;0.00;;;;;;;17.22;76.57;98495.66;5016983;28;20049;-74
2023/08/08 05:49:17;;;;;;;0.20;0.00;;;;;;;17.20;76.31;98496.75;5015216;28;20048;-74
2023/08/08 05:51:44;;;;;;;2.05;0.00;;;;;;;17.19;76.57;98489.78;5011622;28;20046;-76
2023/08/08 05:54:11;;;;;;;1.45;0.10;;;;;;;17.11;76.44;98479.88;5013479;28;20500;-73
2023/08/08 05:56:38;;;;;;;1.45;0.10;;;;;;;17.18;76.65;98482.84;5013790;28;20131;-74
2023/08/08 05:59:05;;;;;;;1.02;0.20;;;;;;;17.17;76.59;98475.91;5010825;28;20499;-74
2023/08/08 06:01:34;;;;;;;2.22;0.60;;;;;;;17.16;76.64;98463.66;5014312;28;20053;-73
2023/08/08 06:04:01;;;;;;;5.18;0.60;;;;;;;17.16;76.68;98464.53;5015045;28;20052;-73
2023/08/08 06:06:28;;;;;;;6.63;1.02;;;;;;;17.16;76.67;98453.97;5010626;28;20049;-74
2023/08/08 06:08:55;;;;;;;1.67;0.30;;;;;;;17.17;76.76;98453.00;5017563;28;20050;-73
2023/08/08 06:11:22;;;;;;;3.08;1.08;;;;;;;17.18;76.87;98462.56;5011254;28;20047;-73
2023/08/08 06:13:50;;;;;;;2.38;0.20;;;;;;;17.13;76.95;98441.00;5010169;28;20124;-73
2023/08/08 06:16:18;;;;;;;0.47;0.10;;;;;;;17.20;76.92;98447.47;5012841;28;20052;-74
2023/08/08 06:18:46;;;;;;;1.25;0.30;;;;;;;17.21;76.96;98446.50;5013496;28;20152;-75
2023/08/08 06:21:13;;;;;;;1.17;0.00;;;;;;;17.18;76.74;98438.84;5014582;28;20052;-74
2023/08/08 06:23:40;;;;;;;1.10;0.10;;;;;;;17.18;76.87;98430.09;5011220;28;20052;-73
2023/08/08 06:26:07;;;;;;;0.90;0.00;;;;;;;17.19;77.13;98437.03;5012417;28;20041;-75
2023/08/08 06:28:34;;;;;;;0.30;0.00;;;;;;;17.20;76.48;98433.44;5010648;28;20417;-76
2023/08/08 06:31:02;;;;;;;2.53;0.10;;;;;;;17.17;76.84;98425.78;5014565;28;20052;-76
2023/08/08 06:33:29;;;;;;;0.28;0.08;;;;;;;17.18;76.70;98430.91;5011289;28;20045;-76
2023/08/08 06:35:58;;;;;;;0.30;0.10;;;;;;;17.16;76.60;98424.94;5015080;28;20049;-76
2023/08/08 06:38:25;;;;;;;0.25;0.05;;;;;;;17.16;76.75;98421.44;5008984;28;20048;-76
2023/08/08 06:40:52;;;;;;;0.30;0.10;;;;;;;17.13;76.90;98414.63;5012054;28;20055;-76
2023/08/08 06:43:18;;;;;;;1.38;0.08;;;;;;;17.15;76.67;98415.34;5005837;28;20046;-76
2023/08/08 06:45:45;;;;;;;0.82;0.00;;;;;;;17.15;76.57;98412.72;5008783;28;20053;-76
2023/08/08 06:48:12;;;;;;;0.63;0.00;;;;;;;17.15;76.84;98415.34;5012287;28;20050;-76
2023/08/08 06:50:39;;;;;;;0.32;0.10;;;;;;;17.15;76.68;98417.16;5014225;28;20054;-76
2023/08/08 06:53:07;;;;;;;0.35;0.10;;;;;;;17.14;76.69;98418.97;5012173;28;20415;-76
2023/08/08 06:55:34;;;;;;;0.43;0.20;;;;;;;17.15;76.78;98412.72;5009973;28;20056;-76
2023/08/08 06:58:01;;;;;;;0.70;0.00;;;;;;;17.14;77.00;98407.56;5009895;28;20054;-75
2023/08/08 07:00:29;;;;;;;0.20;0.10;;;;;;;17.14;76.96;98411.03;5009973;28;20427;-76
2023/08/08 07:02:56;;;;;;;1.33;0.10;;;;;;;17.11;77.50;98398.13;5014424;28;20497;-77
2023/08/08 07:05:23;;;;;;;0.65;0.52;;;;;;;17.16;77.51;98400.34;5009434;28;20068;-76
2023/08/08 07:07:50;;;;;;;1.45;0.00;;;;;;;17.09;77.31;98385.03;5010011;28;20057;-75
2023/08/08 07:10:19;;;;;;;0.05;0.00;;;;;;;17.17;77.44;98400.22;5009328;28;20867;-77
2023/08/08 07:12:46;;;;;;;0.40;0.10;;;;;;;17.18;77.59;98401.06;5010041;28;20052;-77
2023/08/08 07:15:13;;;;;;;0.85;0.10;;;;;;;17.09;77.60;98387.69;5013658;28;20052;-76
2023/08/08 07:17:40;;;;;;;0.35;0.10;;;;;;;17.11;78.09;98386.72;5010455;28;20049;-77
2023/08/08 07:20:08;;;;;;;1.27;0.10;;;;;;;17.13;77.87;98382.97;5009816;28;20042;-76
2023/08/08 07:22:35;;;;;;;1.30;0.10;;;;;;;17.22;77.98;98399.88;5013674;28;20046;-76
2023/08/08 07:25:04;;;;;;;0.57;0.10;;;;;;;17.24;77.84;98401.38;5016211;28;20042;-76
2023/08/08 07:27:32;;;;;;;0.32;0.10;;;;;;;17.25;78.05;98403.06;5014003;28;20078;-77
2023/08/08 07:30:01;;;;;;;1.65;0.28;;;;;;;17.26;78.11;98407.38;5015630;28;20427;-76
2023/08/08 07:32:27;;;;;;;2.92;0.30;;;;;;;17.29;78.38;98407.13;5009689;28;20570;-75
2023/08/08 07:34:54;;;;;;;1.17;0.10;;;;;;;17.30;78.09;98403.53;5015291;28;20408;-76
2023/08/08 07:37:21;;;;;;;1.73;0.10;;;;;;;17.31;78.26;98407.00;5010925;28;20052;-76
2023/08/08 07:39:52;;;;;;;3.60;0.30;;;;;;;17.35;78.52;98407.56;5010338;28;20053;-77
2023/08/08 07:42:18;;;;;;;0.73;0.10;;;;;;;17.35;78.48;98405.75;5016803;28;20053;-77
2023/08/08 07:44:47;;;;;;;3.03;0.20;;;;;;;17.39;78.51;98401.06;5007142;28;20479;-75
2023/08/08 07:47:14;;;;;;;2.10;0.30;;;;;;;17.40;78.62;98398.31;5012403;28;20046;-77
2023/08/08 07:49:40;;;;;;;1.95;0.20;;;;;;;17.43;78.55;98398.03;5011227;28;20510;-76
2023/08/08 07:52:08;;;;;;;0.45;0.20;;;;;;;17.47;79.13;98390.69;5010183;28;20041;-77
2023/08/08 07:54:35;;;;;;;1.65;0.22;;;;;;;17.49;79.18;98394.88;5012005;28;20123;-77
2023/08/08 07:57:02;;;;;;;0.88;0.20;;;;;;;17.51;79.33;98390.31;5008288;28;20144;-77
2023/08/08 07:59:28;;;;;;;0.20;0.20;;;;;;;17.57;79.17;98388.94;5009607;28;20574;-77
2023/08/08 08:01:57;;;;;;;0.20;0.20;;;;;;;17.61;79.00;98395.63;5016013;28;20053;-77
2023/08/08 08:04:24;;;;;;;1.20;0.20;;;;;;;17.65;79.15;98404.97;5018419;28;20085;-77
2023/08/08 08:06:50;;;;;;;1.67;0.20;;;;;;;17.70;78.83;98401.91;5016665;28;20485;-76
2023/08/08 08:09:17;;;;;;;1.83;0.30;;;;;;;17.67;78.96;98395.13;5019078;28;20046;-76
2023/08/08 08:11:44;;;;;;;0.30;0.25;;;;;;;17.77;78.90;98400.44;5016108;28;20053;-76
2023/08/08 08:14:11;;;;;;;0.85;0.40;;;;;;;17.81;78.82;98401.03;5011385;28;20038;-77
2023/08/08 08:16:38;;;;;;;1.15;0.30;;;;;;;17.83;78.68;98407.03;5017545;28;20645;-77
2023/08/08 08:19:06;;;;;;;3.90;0.88;;;;;;;17.87;78.58;98403.16;5017937;28;20134;-76
2023/08/08 08:21:34;;;;;;;0.82;0.20;;;;;;;17.89;78.48;98409.97;5016519;28;20548;-77
2023/08/08 08:24:01;;;;;;;1.02;0.38;;;;;;;17.91;78.17;98417.78;5016869;28;20120;-77
2023/08/08 08:26:28;;;;;;;0.30;0.20;;;;;;;17.93;78.30;98413.19;5014689;28;20050;-75
2023/08/08 08:28:55;;;;;;;0.30;0.20;;;;;;;17.87;78.06;98400.50;5014886;28;20128;-74
2023/08/08 08:31:22;;;;;;;1.02;0.20;;;;;;;17.96;77.99;98416.41;5012821;28;20144;-75
2023/08/08 08:33:49;;;;;;;0.73;0.20;;;;;;;17.96;78.02;98416.41;5013258;28;20049;-74
2023/08/08 08:36:17;;;;;;;0.82;0.10;;;;;;;17.98;78.16;98419.72;5020053;28;20638;-74
2023/08/08 08:38:44;;;;;;;0.73;0.10;;;;;;;18.01;77.95;98423.91;5012538;28;20419;-77
2023/08/08 08:41:16;;;;;;;2.25;0.20;;;;;;;18.02;78.07;98417.69;5013771;28;20049;-77
2023/08/08 08:43:43;;;;;;;3.85;0.10;;;;;;;18.02;77.43;98422.97;5012197;28;20049;-77
2023/08/08 08:46:12;;;;;;;0.28;0.00;;;;;;;18.02;77.38;98430.91;5008821;28;20054;-77
2023/08/08 08:48:39;;;;;;;0.20;0.00;;;;;;;18.01;77.43;98434.47;5012834;28;20057;-74
2023/08/08 08:51:06;;;;;;;0.30;0.05;;;;;;;18.01;77.65;98437.13;5013871;28;20067;-74
2023/08/08 08:53:39;;;;;;;0.30;0.00;;;;;;;17.99;77.71;98428.53;5012037;28;20044;-75
2023/08/08 08:56:06;;;;;;;0.20;0.00;;;;;;;18.04;77.72;98436.03;5011054;28;20084;-75
2023/08/08 08:58:33;;;;;;;1.58;0.00;;;;;;;18.05;77.68;98441.19;5011347;28;20073;-75
2023/08/08 09:01:01;;;;;;;0.68;0.00;;;;;;;18.11;77.80;98445.94;5011147;28;20498;-75
2023/08/08 09:03:28;;;;;;;2.22;0.00;;;;;;;18.12;77.69;98450.25;5008357;28;20061;-75
2023/08/08 09:05:56;;;;;;;1.58;0.00;;;;;;;18.15;77.75;98449.16;5013700;28;20049;-74
2023/08/08 09:08:23;;;;;;;0.10;0.00;;;;;;;18.16;77.70;98451.66;5012225;28;20049;-74
2023/08/08 09:10:51;;;;;;;0.10;0.00;;;;;;;18.22;77.90;98462.69;5012901;28;20691;-74
2023/08/08 09:13:18;;;;;;;0.15;0.00;;;;;;;18.24;77.61;98466.00;5013786;28;20049;-74
2023/08/08 09:15:48;;;;;;;0.13;0.00;;;;;;;18.27;77.97;98465.75;5009832;28;20045;-74
2023/08/08 09:18:15;;;;;;;0.10;0.10;;;;;;;18.29;77.46;98469.09;5015000;28;20516;-74
2023/08/08 09:20:47;;;;;;;0.20;0.10;;;;;;;18.31;77.29;98477.72;5012102;28;20050;-74
2023/08/08 09:23:14;;;;;;;1.10;0.10;;;;;;;18.26;76.66;98467.53;5011626;28;20045;-75
2023/08/08 09:25:41;;;;;;;0.30;0.20;;;;;;;18.30;76.74;98482.19;5014518;28;20056;-74
2023/08/08 09:28:10;;;;;;;0.20;0.20;;;;;;;18.32;76.45;98474.09;5008270;28;20049;-74
2023/08/08 09:30:37;;;;;;;0.50;0.20;;;;;;;18.27;76.57;98481.59;5012848;28;20685;-73
2023/08/08 09:33:04;;;;;;;0.30;0.25;;;;;;;18.31;76.03;98493.59;5005768;28;20042;-74
2023/08/08 09:35:31;;;;;;;0.68;0.30;;;;;;;18.32;76.62;98498.72;5009578;28;20056;-74
2023/08/08 09:37:58;;;;;;;1.25;0.22;;;;;;;18.35;76.18;98511.66;5011467;28;20091;-75
2023/08/08 09:40:25;;;;;;;0.85;0.20;;;;;;;18.36;76.08;98509.88;5012773;28;20077;-74
2023/08/08 09:42:53;;;;;;;0.52;0.25;;;;;;;18.32;75.88;98506.66;5011028;28;20050;-74
2023/08/08 09:45:22;;;;;;;1.35;0.35;;;;;;;18.35;75.49;98513.47;5017063;28;20061;-74
2023/08/08 09:47:52;;;;;;;0.30;0.20;;;;;;;18.26;75.42;98509.84;5006701;28;20049;-73
2023/08/08 09:50:20;;;;;;;0.95;0.20;;;;;;;18.33;75.28;98528.66;5010716;28;20144;-72
2023/08/08 09:52:47;;;;;;;0.80;0.20;;;;;;;18.31;75.03;98533.22;5012623;28;20054;-73
2023/08/08 09:55:16;;;;;;;1.20;0.20;;;;;;;18.31;74.98;98546.44;5011370;28;20120;-74
2023/08/08 09:57:44;;;;;;;2.65;0.55;;;;;;;18.28;74.71;98538.78;5011902;28;20056;-72
2023/08/08 10:00:15;;;;;;;1.35;0.10;;;;;;;18.28;74.68;98544.06;5010218;28;20045;-73
2023/08/08 10:02:45;;;;;;;0.65;0.10;;;;;;;18.26;74.94;98544.19;5010880;28;20057;-73
2023/08/08 10:05:13;;;;;;;0.30;0.10;;;;;;;18.27;74.98;98559.09;5009429;28;20060;-72
2023/08/08 10:07:41;;;;;;;0.85;0.10;;;;;;;18.24;74.62;98556.69;5013154;28;20054;-73
2023/08/08 10:10:09;;;;;;;0.10;0.10;;;;;;;18.23;74.24;98570.03;5011946;28;20045;-73
2023/08/08 10:12:38;;;;;;;0.08;0.00;;;;;;;18.19;74.09;98572.13;5013642;28;20129;-73
2023/08/08 10:15:08;;;;;;;0.15;0.00;;;;;;;18.18;73.65;98573.06;5012912;28;20057;-73
2023/08/08 10:17:37;;;;;;;0.08;0.00;;;;;;;18.17;73.61;98580.16;5013350;28;20064;-73
2023/08/08 10:20:11;;;;;;;0.45;0.00;;;;;;;18.17;73.69;98582.81;5015259;28;20056;-73
2023/08/08 10:22:39;;;;;;;0.22;0.00;;;;;;;18.12;73.06;98579.72;5013274;28;20061;-73
2023/08/08 10:25:08;;;;;;;0.10;0.05;;;;;;;18.14;73.01;98593.63;5013806;28;20511;-73
2023/08/08 10:27:36;;;;;;;0.65;0.10;;;;;;;18.10;72.74;98608.09;5012577;28;20194;-73
2023/08/08 10:30:07;;;;;;;1.10;0.10;;;;;;;18.07;73.20;98615.41;5012335;28;20038;-72
2023/08/08 10:32:40;;;;;;;0.25;0.10;;;;;;;18.06;73.21;98622.50;5015576;28;20591;-73
2023/08/08 10:35:09;;;;;;;0.30;0.00;;;;;;;18.01;73.09;98623.84;5008846;28;20038;-72
2023/08/08 10:37:37;;;;;;;0.40;0.10;;;;;;;18.04;73.17;98642.91;5009819;28;20054;-72
2023/08/08 10:40:06;;;;;;;0.20;0.10;;;;;;;17.92;73.19;98630.75;5010724;28;20046;-73
2023/08/08 10:42:41;;;;;;;0.73;0.00;;;;;;;18.00;73.11;98649.44;5011620;28;20423;-73
2023/08/08 10:45:12;;;;;;;0.38;0.10;;;;;;;17.99;73.37;98653.06;5013330;28;20476;-73
2023/08/08 10:47:39;;;;;;;0.50;0.10;;;;;;;17.95;73.04;98652.44;5009011;28;20042;-72
2023/08/08 10:50:11;;;;;;;0.85;0.00;;;;;;;17.82;72.55;98637.78;5012368;28;20576;-73
2023/08/08 10:52:53;;;;;;;3.30;0.80;;;;;;;17.93;72.70;98672.88;5010086;28;20049;-72
2023/08/08 10:55:22;;;;;;;0.30;0.10;;;;;;;17.88;72.42;98682.16;5010747;28;20056;-73
2023/08/08 10:57:57;;;;;;;1.75;0.20;;;;;;;17.87;72.65;98693.66;5011293;28;20046;-73
2023/08/08 11:00:27;;;;;;;0.45;0.08;;;;;;;17.83;72.23;98694.91;5010592;28;20106;-73
2023/08/08 11:02:55;;;;;;;1.10;0.10;;;;;;;17.81;72.27;98707.38;5008740;28;20046;-74
2023/08/08 11:05:23;;;;;;;0.80;0.20;;;;;;;17.80;71.99;98708.34;5012866;28;20049;-73
2023/08/08 11:07:51;;;;;;;3.40;0.20;;;;;;;17.79;72.19;98715.44;5005213;28;20053;-77
2023/08/08 11:10:19;;;;;;;2.03;0.28;;;;;;;17.77;72.04;98720.81;5012234;28;20093;-78
2023/08/08 11:12:56;;;;;;;1.45;0.00;;;;;;;17.77;72.30;98731.38;5011331;28;20060;-77
2023/08/08 11:15:22;;;;;;;1.23;0.17;;;;;;;17.76;71.73;98737.63;5013786;28;20046;-76
2023/08/08 11:17:50;;;;;;;2.50;0.22;;;;;;;17.74;72.33;98742.19;5013855;28;20137;-76
2023/08/08 11:20:17;;;;;;;0.17;0.10;;;;;;;17.73;72.17;98753.72;5012661;28;20727;-76
2023/08/08 11:22:45;;;;;;;1.52;0.10;;;;;;;17.72;72.28;98757.28;5016420;28;20053;-76
2023/08/08 11:25:15;;;;;;;0.85;0.10;;;;;;;17.71;72.48;98765.34;5011812;28;20049;-76
2023/08/08 11:27:50;;;;;;;0.40;0.10;;;;;;;17.70;72.32;98779.50;5016059;28;20057;-76
2023/08/08 11:30:17;;;;;;;0.40;0.00;;;;;;;17.66;72.59;98773.63;4965615;28;20049;-76
2023/08/08 11:32:44;;;;;;;0.60;0.00;;;;;;;17.68;72.51;98774.34;5013617;28;20676;-76
2023/08/08 11:35:11;;;;;;;0.80;0.10;;;;;;;17.68;72.32;98777.00;5007103;28;20056;-76
2023/08/08 11:37:38;;;;;;;0.25;0.10;;;;;;;17.66;72.10;98791.28;5020152;28;20111;-76